createdAt,value
2018-07-25T00:00:27.058Z,16.00
2018-07-25T00:01:27.020Z,15.92
2018-07-25T00:02:26.975Z,15.90
2018-07-25T00:03:26.945Z,15.84
2018-07-25T00:04:26.923Z,15.82
2018-07-25T00:05:26.899Z,15.71
2018-07-25T00:06:26.850Z,15.75
2018-07-25T00:07:26.821Z,15.76
2018-07-25T00:08:26.789Z,15.71
2018-07-25T00:09:26.754Z,15.67
2018-07-25T00:10:26.723Z,15.68
2018-07-25T00:11:26.677Z,15.62
2018-07-25T00:12:26.643Z,15.57
2018-07-25T00:13:26.620Z,15.51
2018-07-25T00:14:26.588Z,15.51
2018-07-25T00:15:26.579Z,15.53
2018-07-25T00:16:26.508Z,15.50
2018-07-25T00:17:26.470Z,15.49
2018-07-25T00:18:26.441Z,15.46
2018-07-25T00:19:26.417Z,15.51
2018-07-25T00:20:26.383Z,15.53
2018-07-25T00:21:26.360Z,15.54
2018-07-25T00:22:26.352Z,15.46
2018-07-25T00:23:26.286Z,15.46
2018-07-25T00:24:26.244Z,15.41
2018-07-25T00:25:26.219Z,15.38
2018-07-25T00:26:26.178Z,15.36
2018-07-25T00:27:26.157Z,15.39
2018-07-25T00:28:26.119Z,15.36
2018-07-25T00:29:26.077Z,15.43
2018-07-25T00:30:26.032Z,15.44
2018-07-25T00:31:26.007Z,15.41
2018-07-25T00:32:25.980Z,15.38
2018-07-25T00:33:25.949Z,15.41
2018-07-25T00:34:25.907Z,15.34
2018-07-25T00:35:25.860Z,15.36
2018-07-25T00:36:26.004Z,15.34
2018-07-25T00:37:25.809Z,15.27
2018-07-25T00:38:25.767Z,15.21
2018-07-25T00:39:25.738Z,15.29
2018-07-25T00:40:25.707Z,15.23
2018-07-25T00:41:25.663Z,15.14
2018-07-25T00:42:25.627Z,15.14
2018-07-25T00:43:25.607Z,15.19
2018-07-25T00:44:25.563Z,15.11
2018-07-25T00:45:25.533Z,15.27
2018-07-25T00:46:25.494Z,15.27
2018-07-25T00:47:25.461Z,15.38
2018-07-25T00:48:25.450Z,15.36
2018-07-25T00:49:25.405Z,15.39
2018-07-25T00:50:25.371Z,15.38
2018-07-25T00:51:25.318Z,15.49
2018-07-25T00:52:25.307Z,15.56
2018-07-25T00:53:25.259Z,15.59
2018-07-25T00:54:25.220Z,15.51
2018-07-25T00:55:25.247Z,15.49
2018-07-25T00:56:25.155Z,15.50
2018-07-25T00:57:25.123Z,15.46
2018-07-25T00:58:25.094Z,15.44
2018-07-25T00:59:25.059Z,15.36
2018-07-25T01:00:25.024Z,15.31
2018-07-25T01:01:24.983Z,15.29
2018-07-25T01:02:24.960Z,15.25
2018-07-25T01:03:24.925Z,15.20
2018-07-25T01:04:24.941Z,15.17
2018-07-25T01:05:24.861Z,15.17
2018-07-25T01:06:24.815Z,15.10
2018-07-25T01:07:24.781Z,15.16
2018-07-25T01:08:24.746Z,15.13
2018-07-25T01:09:24.739Z,15.09
2018-07-25T01:10:24.677Z,15.11
2018-07-25T01:11:24.660Z,15.11
2018-07-25T01:12:24.615Z,15.09
2018-07-25T01:13:24.596Z,15.11
2018-07-25T01:14:24.539Z,15.07
2018-07-25T01:15:24.524Z,15.09
2018-07-25T01:16:24.500Z,15.02
2018-07-25T01:17:24.440Z,15.06
2018-07-25T01:18:24.406Z,15.06
2018-07-25T01:19:24.384Z,15.02
2018-07-25T01:20:24.343Z,14.91
2018-07-25T01:21:24.313Z,14.91
2018-07-25T01:22:24.273Z,14.91
2018-07-25T01:23:24.249Z,14.95
2018-07-25T01:24:24.204Z,14.88
2018-07-25T01:25:24.176Z,14.95
2018-07-25T01:26:24.205Z,14.89
2018-07-25T01:27:24.096Z,14.91
2018-07-25T01:28:24.059Z,14.81
2018-07-25T01:29:24.023Z,14.80
2018-07-25T01:30:23.994Z,14.83
2018-07-25T01:31:23.971Z,14.65
2018-07-25T01:32:23.935Z,14.68
2018-07-25T01:33:23.894Z,14.68
2018-07-25T01:34:23.849Z,14.69
2018-07-25T01:35:23.835Z,14.58
2018-07-25T01:36:23.799Z,14.62
2018-07-25T01:37:23.793Z,14.61
2018-07-25T01:38:23.722Z,14.57
2018-07-25T01:39:23.708Z,14.50
2018-07-25T01:40:23.661Z,14.45
2018-07-25T01:41:23.612Z,14.43
2018-07-25T01:42:23.595Z,14.51
2018-07-25T01:43:23.555Z,14.47
2018-07-25T01:44:23.526Z,14.50
2018-07-25T01:45:23.493Z,14.64
2018-07-25T01:46:23.460Z,14.68
2018-07-25T01:47:23.422Z,14.62
2018-07-25T01:48:23.375Z,14.54
2018-07-25T01:49:23.348Z,14.60
2018-07-25T01:50:23.318Z,14.70
2018-07-25T01:51:23.283Z,14.65
2018-07-25T01:52:23.272Z,14.68
2018-07-25T01:53:23.258Z,14.84
2018-07-25T01:54:23.167Z,14.75
2018-07-25T01:55:23.144Z,14.83
2018-07-25T01:56:23.162Z,14.68
2018-07-25T01:57:23.071Z,14.78
2018-07-25T01:58:23.071Z,14.89
2018-07-25T01:59:23.002Z,14.91
2018-07-25T02:00:23.007Z,14.96
2018-07-25T02:01:22.982Z,14.86
2018-07-25T02:02:22.894Z,14.96
2018-07-25T02:03:22.867Z,14.83
2018-07-25T02:04:22.835Z,14.83
2018-07-25T02:05:22.805Z,14.75
2018-07-25T02:06:22.771Z,14.58
2018-07-25T02:07:22.742Z,14.64
2018-07-25T02:08:22.725Z,14.50
2018-07-25T02:09:22.659Z,14.50
2018-07-25T02:10:22.613Z,14.39
2018-07-25T02:11:22.600Z,14.40
2018-07-25T02:12:22.548Z,14.25
2018-07-25T02:13:22.519Z,14.40
2018-07-25T02:14:22.484Z,14.43
2018-07-25T02:15:22.446Z,14.54
2018-07-25T02:16:22.418Z,14.55
2018-07-25T02:17:22.378Z,14.58
2018-07-25T02:18:22.346Z,14.54
2018-07-25T02:19:22.343Z,14.61
2018-07-25T02:20:22.278Z,14.58
2018-07-25T02:21:22.240Z,14.54
2018-07-25T02:22:22.206Z,14.55
2018-07-25T02:23:22.173Z,14.46
2018-07-25T02:24:22.145Z,14.47
2018-07-25T02:25:22.106Z,14.40
2018-07-25T02:26:22.087Z,14.42
2018-07-25T02:27:22.032Z,14.47
2018-07-25T02:28:22.026Z,14.55
2018-07-25T02:29:21.976Z,14.57
2018-07-25T02:30:21.920Z,14.51
2018-07-25T02:31:21.893Z,14.55
2018-07-25T02:32:21.865Z,14.64
2018-07-25T02:33:21.815Z,14.60
2018-07-25T02:34:21.786Z,14.55
2018-07-25T02:35:21.755Z,14.51
2018-07-25T02:36:21.733Z,14.47
2018-07-25T02:37:21.704Z,14.42
2018-07-25T02:38:21.657Z,14.36
2018-07-25T02:39:21.623Z,14.33
2018-07-25T02:40:21.585Z,14.28
2018-07-25T02:41:21.559Z,14.42
2018-07-25T02:42:21.533Z,14.37
2018-07-25T02:43:21.506Z,14.36
2018-07-25T02:44:21.443Z,14.42
2018-07-25T02:45:21.412Z,14.27
2018-07-25T02:46:21.370Z,14.29
2018-07-25T02:47:21.342Z,14.29
2018-07-25T02:48:21.302Z,14.35
2018-07-25T02:49:21.270Z,14.39
2018-07-25T02:50:21.235Z,14.43
2018-07-25T02:51:21.207Z,14.28
2018-07-25T02:52:21.167Z,14.29
2018-07-25T02:53:21.132Z,14.36
2018-07-25T02:54:21.098Z,14.28
2018-07-25T02:55:21.056Z,14.35
2018-07-25T02:56:21.017Z,14.27
2018-07-25T02:57:20.987Z,14.24
2018-07-25T02:58:20.964Z,14.24
2018-07-25T02:59:20.925Z,14.21
2018-07-25T03:00:20.911Z,14.28
2018-07-25T03:01:20.877Z,14.46
2018-07-25T03:02:20.968Z,14.69
2018-07-25T03:03:20.857Z,14.60
2018-07-25T03:04:20.790Z,14.60
2018-07-25T03:05:20.714Z,14.58
2018-07-25T03:06:20.715Z,14.47
2018-07-25T03:07:20.655Z,14.45
2018-07-25T03:08:20.616Z,14.36
2018-07-25T03:09:20.582Z,14.32
2018-07-25T03:10:20.538Z,14.37
2018-07-25T03:11:20.500Z,14.40
2018-07-25T03:12:20.483Z,14.39
2018-07-25T03:13:20.423Z,14.43
2018-07-25T03:14:20.393Z,14.28
2018-07-25T03:15:20.352Z,14.28
2018-07-25T03:16:20.335Z,14.33
2018-07-25T03:17:20.306Z,14.28
2018-07-25T03:18:20.260Z,14.21
2018-07-25T03:19:20.266Z,14.27
2018-07-25T03:20:20.186Z,14.22
2018-07-25T03:21:20.163Z,14.28
2018-07-25T03:22:20.127Z,14.29
2018-07-25T03:23:20.093Z,14.21
2018-07-25T03:24:20.044Z,14.25
2018-07-25T03:25:20.007Z,14.25
2018-07-25T03:26:19.984Z,14.25
2018-07-25T03:27:19.948Z,14.25
2018-07-25T03:28:19.908Z,14.14
2018-07-25T03:29:19.870Z,14.12
2018-07-25T03:30:19.833Z,14.03
2018-07-25T03:31:19.852Z,14.03
2018-07-25T03:32:19.762Z,14.07
2018-07-25T03:33:19.741Z,14.17
2018-07-25T03:34:19.702Z,14.21
2018-07-25T03:35:19.654Z,14.17
2018-07-25T03:36:19.726Z,14.25
2018-07-25T03:37:19.610Z,14.29
2018-07-25T03:38:19.559Z,14.27
2018-07-25T03:39:19.558Z,14.25
2018-07-25T03:40:19.478Z,14.24
2018-07-25T03:41:19.488Z,14.25
2018-07-25T03:42:19.413Z,14.32
2018-07-25T03:43:19.386Z,14.32
2018-07-25T03:44:19.364Z,14.28
2018-07-25T03:45:19.324Z,14.33
2018-07-25T03:46:19.325Z,14.28
2018-07-25T03:47:19.274Z,14.17
2018-07-25T03:48:19.201Z,14.18
2018-07-25T03:49:19.172Z,14.25
2018-07-25T03:50:19.132Z,14.28
2018-07-25T03:51:19.109Z,14.28
2018-07-25T03:52:19.165Z,14.33
2018-07-25T03:53:19.046Z,14.29
2018-07-25T03:54:18.990Z,14.29
2018-07-25T03:55:18.943Z,14.37
2018-07-25T03:56:18.919Z,14.43
2018-07-25T03:57:18.892Z,14.42
2018-07-25T03:58:18.862Z,14.27
2018-07-25T03:59:18.843Z,14.27
2018-07-25T04:00:18.788Z,14.27
2018-07-25T04:01:18.738Z,14.28
2018-07-25T04:02:18.729Z,14.27
2018-07-25T04:03:18.694Z,14.39
2018-07-25T04:04:18.644Z,14.36
2018-07-25T04:05:18.619Z,14.35
2018-07-25T04:06:18.561Z,14.33
2018-07-25T04:07:18.532Z,14.36
2018-07-25T04:08:18.512Z,14.37
2018-07-25T04:09:18.490Z,14.36
2018-07-25T04:10:18.467Z,14.47
2018-07-25T04:11:18.417Z,14.45
2018-07-25T04:12:18.366Z,14.39
2018-07-25T04:13:18.336Z,14.40
2018-07-25T04:14:18.304Z,14.40
2018-07-25T04:15:18.276Z,14.45
2018-07-25T04:16:18.233Z,14.52
2018-07-25T04:17:18.185Z,14.64
2018-07-25T04:18:18.142Z,14.57
2018-07-25T04:19:18.147Z,14.61
2018-07-25T04:20:18.093Z,14.60
2018-07-25T04:21:18.044Z,14.89
2018-07-25T04:22:18.020Z,14.98
2018-07-25T04:23:17.987Z,14.91
2018-07-25T04:24:17.940Z,14.89
2018-07-25T04:25:17.905Z,14.96
2018-07-25T04:26:17.898Z,15.01
2018-07-25T04:27:17.846Z,15.06
2018-07-25T04:28:17.807Z,15.19
2018-07-25T04:29:17.784Z,15.29
2018-07-25T04:30:17.750Z,15.19
2018-07-25T04:31:17.726Z,15.23
2018-07-25T04:32:17.692Z,15.14
2018-07-25T04:33:17.627Z,15.14
2018-07-25T04:34:17.627Z,15.11
2018-07-25T04:35:17.581Z,15.14
2018-07-25T04:36:17.516Z,15.14
2018-07-25T04:37:17.490Z,15.14
2018-07-25T04:38:17.468Z,15.27
2018-07-25T04:39:17.448Z,15.31
2018-07-25T04:40:17.453Z,15.29
2018-07-25T04:41:17.394Z,15.44
2018-07-25T04:42:17.407Z,15.41
2018-07-25T04:43:17.293Z,15.43
2018-07-25T04:44:17.255Z,15.53
2018-07-25T04:45:17.213Z,15.50
2018-07-25T04:46:17.281Z,15.65
2018-07-25T04:47:17.157Z,15.68
2018-07-25T04:48:17.129Z,16.01
2018-07-25T04:49:17.081Z,16.35
2018-07-25T04:50:17.035Z,16.73
2018-07-25T04:51:17.051Z,16.83
2018-07-25T04:52:16.996Z,16.76
2018-07-25T04:53:16.984Z,16.79
2018-07-25T04:54:16.895Z,16.88
2018-07-25T04:55:16.895Z,17.06
2018-07-25T04:56:16.840Z,17.03
2018-07-25T04:57:16.814Z,17.06
2018-07-25T04:58:16.777Z,17.23
2018-07-25T04:59:16.756Z,17.31
2018-07-25T05:00:16.705Z,17.22
2018-07-25T05:01:16.683Z,17.19
2018-07-25T05:02:16.634Z,17.49
2018-07-25T05:03:16.633Z,17.90
2018-07-25T05:04:16.577Z,18.26
2018-07-25T05:05:16.552Z,18.17
2018-07-25T05:06:16.508Z,18.36
2018-07-25T05:07:16.574Z,18.81
2018-07-25T05:08:16.448Z,19.06
2018-07-25T05:09:16.395Z,19.40
2018-07-25T05:10:16.383Z,19.58
2018-07-25T05:11:16.352Z,19.71
2018-07-25T05:12:16.304Z,19.91
2018-07-25T05:13:16.275Z,20.48
2018-07-25T05:14:16.263Z,21.03
2018-07-25T05:15:16.246Z,21.59
2018-07-25T05:16:16.256Z,22.06
2018-07-25T05:17:16.182Z,22.67
2018-07-25T05:18:16.119Z,22.91
2018-07-25T05:19:16.097Z,23.25
2018-07-25T05:20:16.057Z,23.68
2018-07-25T05:21:16.051Z,24.16
2018-07-25T05:22:16.013Z,24.39
2018-07-25T05:23:16.001Z,24.80
2018-07-25T05:24:15.956Z,25.03
2018-07-25T05:25:15.908Z,25.24
2018-07-25T05:26:15.896Z,25.13
2018-07-25T05:27:15.889Z,25.17
2018-07-25T05:28:15.850Z,25.36
2018-07-25T05:29:15.827Z,25.51
2018-07-25T05:30:15.868Z,25.75
2018-07-25T05:31:15.845Z,25.46
2018-07-25T05:32:15.721Z,25.06
2018-07-25T05:33:15.723Z,25.18
2018-07-25T05:34:15.696Z,25.30
2018-07-25T05:35:15.623Z,25.42
2018-07-25T05:36:15.587Z,25.08
2018-07-25T05:37:15.573Z,24.43
2018-07-25T05:38:15.590Z,23.70
2018-07-25T05:39:15.506Z,23.04
2018-07-25T05:40:15.474Z,22.47
2018-07-25T05:41:15.467Z,21.88
2018-07-25T05:42:15.429Z,21.59
2018-07-25T05:43:15.441Z,21.49
2018-07-25T05:44:15.380Z,21.44
2018-07-25T05:45:15.353Z,21.44
2018-07-25T05:46:15.323Z,21.44
2018-07-25T05:47:15.295Z,21.31
2018-07-25T05:48:15.272Z,21.07
2018-07-25T05:49:15.281Z,20.87
2018-07-25T05:50:15.209Z,20.76
2018-07-25T05:51:15.196Z,20.64
2018-07-25T05:52:15.211Z,20.66
2018-07-25T05:53:15.176Z,20.72
2018-07-25T05:54:15.115Z,20.73
2018-07-25T05:55:15.089Z,20.73
2018-07-25T05:56:15.067Z,20.77
2018-07-25T05:57:15.025Z,20.84
2018-07-25T05:58:15.000Z,20.77
2018-07-25T05:59:14.967Z,20.82
2018-07-25T06:00:14.949Z,20.66
2018-07-25T06:01:14.923Z,20.67
2018-07-25T06:02:14.889Z,20.66
2018-07-25T06:03:14.946Z,20.64
2018-07-25T06:04:14.840Z,20.61
2018-07-25T06:05:14.801Z,20.69
2018-07-25T06:06:14.867Z,20.69
2018-07-25T06:07:14.757Z,20.69
2018-07-25T06:08:14.717Z,20.62
2018-07-25T06:09:14.689Z,20.66
2018-07-25T06:10:14.658Z,20.62
2018-07-25T06:11:14.628Z,20.69
2018-07-25T06:12:14.601Z,20.77
2018-07-25T06:13:14.574Z,20.82
2018-07-25T06:14:14.616Z,20.91
2018-07-25T06:15:14.527Z,20.99
2018-07-25T06:16:14.479Z,21.13
2018-07-25T06:17:14.452Z,21.14
2018-07-25T06:18:14.426Z,21.27
2018-07-25T06:19:14.412Z,21.35
2018-07-25T06:20:14.384Z,21.46
2018-07-25T06:21:14.346Z,21.54
2018-07-25T06:22:14.301Z,21.53
2018-07-25T06:23:14.276Z,21.56
2018-07-25T06:24:14.255Z,21.69
2018-07-25T06:25:14.224Z,21.79
2018-07-25T06:26:14.190Z,21.91
2018-07-25T06:27:14.168Z,22.06
2018-07-25T06:28:14.133Z,22.46
2018-07-25T06:29:14.101Z,22.70
2018-07-25T06:30:14.093Z,22.72
2018-07-25T06:31:14.090Z,22.62
2018-07-25T06:32:14.027Z,22.61
2018-07-25T06:33:13.988Z,22.62
2018-07-25T06:34:13.972Z,22.64
2018-07-25T06:35:13.931Z,22.67
2018-07-25T06:36:13.896Z,22.91
2018-07-25T06:37:13.897Z,22.95
2018-07-25T06:38:13.844Z,23.04
2018-07-25T06:39:13.820Z,23.23
2018-07-25T06:40:13.792Z,23.33
2018-07-25T06:41:13.758Z,23.36
2018-07-25T06:42:13.823Z,23.23
2018-07-25T06:43:13.731Z,23.35
2018-07-25T06:44:13.665Z,23.39
2018-07-25T06:45:13.649Z,23.46
2018-07-25T06:46:13.613Z,23.50
2018-07-25T06:47:13.613Z,23.53
2018-07-25T06:48:13.554Z,23.57
2018-07-25T06:49:13.532Z,23.60
2018-07-25T06:50:13.501Z,23.79
2018-07-25T06:51:13.468Z,23.80
2018-07-25T06:52:13.436Z,24.09
2018-07-25T06:53:13.407Z,24.16
2018-07-25T06:54:13.382Z,24.12
2018-07-25T06:55:13.352Z,24.37
2018-07-25T06:56:13.322Z,24.46
2018-07-25T06:57:13.371Z,24.50
2018-07-25T06:58:13.281Z,24.69
2018-07-25T06:59:13.235Z,24.87
2018-07-25T07:00:13.221Z,25.28
2018-07-25T07:01:13.183Z,26.15
2018-07-25T07:02:13.147Z,27.24
2018-07-25T07:03:13.123Z,28.44
2018-07-25T07:04:13.115Z,29.19
2018-07-25T07:05:13.133Z,29.80
2018-07-25T07:06:13.040Z,30.39
2018-07-25T07:07:13.024Z,30.91
2018-07-25T07:08:13.003Z,31.10
2018-07-25T07:09:12.977Z,31.56
2018-07-25T07:10:12.964Z,32.11
2018-07-25T07:11:12.933Z,32.37
2018-07-25T07:12:12.957Z,32.63
2018-07-25T07:13:12.861Z,32.59
2018-07-25T07:14:12.852Z,32.66
2018-07-25T07:15:12.818Z,33.16
2018-07-25T07:16:12.807Z,33.00
2018-07-25T07:17:12.791Z,32.97
2018-07-25T07:18:12.763Z,32.85
2018-07-25T07:19:12.760Z,32.69
2018-07-25T07:20:12.715Z,32.57
2018-07-25T07:21:12.672Z,32.89
2018-07-25T07:22:12.853Z,33.00
2018-07-25T07:23:12.665Z,32.99
2018-07-25T07:24:12.636Z,32.74
2018-07-25T07:25:12.600Z,32.37
2018-07-25T07:26:12.582Z,32.23
2018-07-25T07:27:12.565Z,32.33
2018-07-25T07:28:12.542Z,32.52
2018-07-25T07:29:12.523Z,33.07
2018-07-25T07:30:12.496Z,33.68
2018-07-25T07:31:12.485Z,34.28
2018-07-25T07:32:12.450Z,34.72
2018-07-25T07:33:12.449Z,34.46
2018-07-25T07:34:12.429Z,34.80
2018-07-25T07:35:12.453Z,34.87
2018-07-25T07:36:12.400Z,34.34
2018-07-25T07:37:12.378Z,33.88
2018-07-25T07:38:12.355Z,33.44
2018-07-25T07:39:12.329Z,33.28
2018-07-25T07:40:12.299Z,33.49
2018-07-25T07:41:12.301Z,33.93
2018-07-25T07:42:12.289Z,34.49
2018-07-25T07:43:12.270Z,34.65
2018-07-25T07:44:12.289Z,34.80
2018-07-25T07:45:12.238Z,35.03
2018-07-25T07:46:12.203Z,35.50
2018-07-25T07:47:12.217Z,35.77
2018-07-25T07:48:12.203Z,36.08
2018-07-25T07:49:12.175Z,36.38
2018-07-25T07:50:12.138Z,36.41
2018-07-25T07:51:12.120Z,36.90
2018-07-25T07:52:12.119Z,36.41
2018-07-25T07:53:12.092Z,36.38
2018-07-25T07:54:12.083Z,36.07
2018-07-25T07:55:12.061Z,35.94
2018-07-25T07:56:12.046Z,36.39
2018-07-25T07:57:12.039Z,36.65
2018-07-25T07:58:12.017Z,37.05
2018-07-25T07:59:12.012Z,37.21
2018-07-25T08:00:11.996Z,37.18
2018-07-25T08:01:11.967Z,36.64
2018-07-25T08:02:11.946Z,36.34
2018-07-25T08:03:11.945Z,36.32
2018-07-25T08:04:11.937Z,36.57
2018-07-25T08:05:11.910Z,36.99
2018-07-25T08:06:11.914Z,37.36
2018-07-25T08:07:11.883Z,37.63
2018-07-25T08:08:11.863Z,37.36
2018-07-25T08:09:11.851Z,36.19
2018-07-25T08:10:11.866Z,36.13
2018-07-25T08:11:11.832Z,35.71
2018-07-25T08:12:11.804Z,35.56
2018-07-25T08:13:11.797Z,35.37
2018-07-25T08:14:11.792Z,35.90
2018-07-25T08:15:11.778Z,34.96
2018-07-25T08:16:11.749Z,34.50
2018-07-25T08:17:11.743Z,34.42
2018-07-25T08:18:11.754Z,34.66
2018-07-25T08:19:11.722Z,35.16
2018-07-25T08:20:11.715Z,35.40
2018-07-25T08:21:11.761Z,35.72
2018-07-25T08:22:11.708Z,35.68
2018-07-25T08:23:11.661Z,35.29
2018-07-25T08:24:11.679Z,34.94
2018-07-25T08:25:11.630Z,35.06
2018-07-25T08:26:11.648Z,34.49
2018-07-25T08:27:11.602Z,34.50
2018-07-25T08:28:11.607Z,34.44
2018-07-25T08:29:11.579Z,34.59
2018-07-25T08:30:11.557Z,34.85
2018-07-25T08:31:11.578Z,34.52
2018-07-25T08:32:11.527Z,35.07
2018-07-25T08:33:11.517Z,35.15
2018-07-25T08:34:11.499Z,34.72
2018-07-25T08:35:11.507Z,34.64
2018-07-25T08:36:11.473Z,34.34
2018-07-25T08:37:11.452Z,34.34
2018-07-25T08:38:11.433Z,34.43
2018-07-25T08:39:11.427Z,34.81
2018-07-25T08:40:11.415Z,35.07
2018-07-25T08:41:11.409Z,35.26
2018-07-25T08:42:11.383Z,35.66
2018-07-25T08:43:11.376Z,35.72
2018-07-25T08:44:11.362Z,34.89
2018-07-25T08:45:11.342Z,34.87
2018-07-25T08:46:11.320Z,35.04
2018-07-25T08:47:11.310Z,35.52
2018-07-25T08:48:11.309Z,35.65
2018-07-25T08:49:11.275Z,35.74
2018-07-25T08:50:11.275Z,36.25
2018-07-25T08:51:11.248Z,36.43
2018-07-25T08:52:11.256Z,36.71
2018-07-25T08:53:11.216Z,36.34
2018-07-25T08:54:11.232Z,36.88
2018-07-25T08:55:11.196Z,36.56
2018-07-25T08:56:11.192Z,36.72
2018-07-25T08:57:11.171Z,37.12
2018-07-25T08:58:11.150Z,37.05
2018-07-25T08:59:11.152Z,36.88
2018-07-25T09:00:11.129Z,37.10
2018-07-25T09:01:11.124Z,37.32
2018-07-25T09:02:11.128Z,37.56
2018-07-25T09:03:11.065Z,37.51
2018-07-25T09:04:11.072Z,36.90
2018-07-25T09:05:11.045Z,36.68
2018-07-25T09:06:11.053Z,36.81
2018-07-25T09:07:11.028Z,37.03
2018-07-25T09:08:11.028Z,36.85
2018-07-25T09:09:11.055Z,36.99
2018-07-25T09:10:11.015Z,37.21
2018-07-25T09:11:10.977Z,37.41
2018-07-25T09:12:10.947Z,37.49
2018-07-25T09:13:11.013Z,37.29
2018-07-25T09:14:10.928Z,37.62
2018-07-25T09:15:10.925Z,38.15
2018-07-25T09:16:10.896Z,38.50
2018-07-25T09:17:10.874Z,38.79
2018-07-25T09:18:10.884Z,39.18
2018-07-25T09:19:10.856Z,39.43
2018-07-25T09:20:10.851Z,38.22
2018-07-25T09:21:10.838Z,37.89
2018-07-25T09:22:10.823Z,38.20
2018-07-25T09:23:10.789Z,38.22
2018-07-25T09:24:10.785Z,38.11
2018-07-25T09:25:10.815Z,37.34
2018-07-25T09:26:10.748Z,35.78
2018-07-25T09:27:10.732Z,34.05
2018-07-25T09:28:10.724Z,34.13
2018-07-25T09:29:10.713Z,33.93
2018-07-25T09:30:10.697Z,34.19
2018-07-25T09:31:10.730Z,34.12
2018-07-25T09:32:10.686Z,34.09
2018-07-25T09:33:10.651Z,33.79
2018-07-25T09:34:11.482Z,34.64
2018-07-25T09:35:10.626Z,35.70
2018-07-25T09:36:10.630Z,36.29
2018-07-25T09:37:10.610Z,36.95
2018-07-25T09:38:11.446Z,37.22
2018-07-25T09:39:10.570Z,37.55
2018-07-25T09:40:10.560Z,37.43
2018-07-25T09:41:10.545Z,37.67
2018-07-25T09:42:10.526Z,37.93
2018-07-25T09:43:10.509Z,36.28
2018-07-25T09:44:10.502Z,34.31
2018-07-25T09:45:10.489Z,33.44
2018-07-25T09:46:10.460Z,32.41
2018-07-25T09:47:10.470Z,32.07
2018-07-25T09:48:10.434Z,31.73
2018-07-25T09:49:10.424Z,31.19
2018-07-25T09:50:10.413Z,30.88
2018-07-25T09:51:10.397Z,31.25
2018-07-25T09:52:10.387Z,32.33
2018-07-25T09:53:10.515Z,33.19
2018-07-25T09:54:10.368Z,32.88
2018-07-25T09:55:10.340Z,32.96
2018-07-25T09:56:10.393Z,33.82
2018-07-25T09:57:10.290Z,34.72
2018-07-25T09:58:10.275Z,35.52
2018-07-25T09:59:10.278Z,36.01
2018-07-25T10:00:10.270Z,36.03
2018-07-25T10:01:10.350Z,36.54
2018-07-25T10:02:10.258Z,36.16
2018-07-25T10:03:10.208Z,36.27
2018-07-25T10:04:10.192Z,36.71
2018-07-25T10:05:10.166Z,36.81
2018-07-25T10:06:10.179Z,36.78
2018-07-25T10:07:10.161Z,37.05
2018-07-25T10:08:10.115Z,37.07
2018-07-25T10:09:10.088Z,37.44
2018-07-25T10:10:10.083Z,37.50
2018-07-25T10:11:10.051Z,37.70
2018-07-25T10:12:10.026Z,37.44
2018-07-25T10:13:10.035Z,37.13
2018-07-25T10:14:10.000Z,36.71
2018-07-25T10:15:10.070Z,35.15
2018-07-25T10:16:09.955Z,33.91
2018-07-25T10:17:10.037Z,33.84
2018-07-25T10:18:09.983Z,33.88
2018-07-25T10:19:09.955Z,33.38
2018-07-25T10:20:10.011Z,34.05
2018-07-25T10:21:10.018Z,34.69
2018-07-25T10:22:09.858Z,35.33
2018-07-25T10:23:09.902Z,35.74
2018-07-25T10:24:09.843Z,35.34
2018-07-25T10:25:09.823Z,35.29
2018-07-25T10:26:09.829Z,35.16
2018-07-25T10:27:09.816Z,35.00
2018-07-25T10:28:09.811Z,35.50
2018-07-25T10:29:09.774Z,35.03
2018-07-25T10:30:09.747Z,34.97
2018-07-25T10:31:09.717Z,35.00
2018-07-25T10:32:09.697Z,35.29
2018-07-25T10:33:09.685Z,35.52
2018-07-25T10:34:09.687Z,35.11
2018-07-25T10:35:09.658Z,35.09
2018-07-25T10:36:09.676Z,36.09
2018-07-25T10:37:09.629Z,36.00
2018-07-25T10:38:09.610Z,36.20
2018-07-25T10:39:09.604Z,35.75
2018-07-25T10:40:09.570Z,35.68
2018-07-25T10:41:09.552Z,35.99
2018-07-25T10:42:09.534Z,36.38
2018-07-25T10:43:09.510Z,36.60
2018-07-25T10:44:09.494Z,36.87
2018-07-25T10:45:09.502Z,37.24
2018-07-25T10:46:09.468Z,36.81
2018-07-25T10:47:09.445Z,35.81
2018-07-25T10:48:09.431Z,35.15
2018-07-25T10:49:09.417Z,35.75
2018-07-25T10:50:09.411Z,35.38
2018-07-25T10:51:09.404Z,35.22
2018-07-25T10:52:09.379Z,35.00
2018-07-25T10:53:09.404Z,34.13
2018-07-25T10:54:09.322Z,34.54
2018-07-25T10:55:09.339Z,35.00
2018-07-25T10:56:09.321Z,35.29
2018-07-25T10:57:09.330Z,34.61
2018-07-25T10:58:09.248Z,33.87
2018-07-25T10:59:09.246Z,34.15
2018-07-25T11:00:09.237Z,34.13
2018-07-25T11:01:09.215Z,34.22
2018-07-25T11:02:09.268Z,34.61
2018-07-25T11:03:09.166Z,35.33
2018-07-25T11:04:09.161Z,36.12
2018-07-25T11:05:09.145Z,36.59
2018-07-25T11:06:09.132Z,36.00
2018-07-25T11:07:09.113Z,35.80
2018-07-25T11:08:09.094Z,36.19
2018-07-25T11:09:09.085Z,35.94
2018-07-25T11:10:09.054Z,35.11
2018-07-25T11:11:09.039Z,34.35
2018-07-25T11:12:09.028Z,34.50
2018-07-25T11:13:09.013Z,34.94
2018-07-25T11:14:08.986Z,35.22
2018-07-25T11:15:08.982Z,35.14
2018-07-25T11:16:08.951Z,34.81
2018-07-25T11:17:08.937Z,35.03
2018-07-25T11:18:08.921Z,34.89
2018-07-25T11:19:08.906Z,34.52
2018-07-25T11:20:08.889Z,34.09
2018-07-25T11:21:08.878Z,33.73
2018-07-25T11:22:08.855Z,33.47
2018-07-25T11:23:08.868Z,33.78
2018-07-25T11:24:08.830Z,33.32
2018-07-25T11:25:08.790Z,32.94
2018-07-25T11:26:08.776Z,32.40
2018-07-25T11:27:08.819Z,32.21
2018-07-25T11:28:08.758Z,32.33
2018-07-25T11:29:08.735Z,33.18
2018-07-25T11:30:08.699Z,34.12
2018-07-25T11:31:08.688Z,34.87
2018-07-25T11:32:08.683Z,35.38
2018-07-25T11:33:08.654Z,36.17
2018-07-25T11:34:08.653Z,36.53
2018-07-25T11:35:08.628Z,36.80
2018-07-25T11:36:08.601Z,37.20
2018-07-25T11:37:08.587Z,37.03
2018-07-25T11:38:08.574Z,37.12
2018-07-25T11:39:08.544Z,37.24
2018-07-25T11:40:08.525Z,37.18
2018-07-25T11:41:08.520Z,36.27
2018-07-25T11:42:08.493Z,35.29
2018-07-25T11:43:08.464Z,35.22
2018-07-25T11:44:08.480Z,35.94
2018-07-25T11:45:08.445Z,36.32
2018-07-25T11:46:08.421Z,35.90
2018-07-25T11:47:08.402Z,35.25
2018-07-25T11:48:08.397Z,34.61
2018-07-25T11:49:08.386Z,33.82
2018-07-25T11:50:08.364Z,33.29
2018-07-25T11:51:08.337Z,32.78
2018-07-25T11:52:08.324Z,32.22
2018-07-25T11:53:08.295Z,32.11
2018-07-25T11:54:08.281Z,31.89
2018-07-25T11:55:08.267Z,31.99
2018-07-25T11:56:08.247Z,31.86
2018-07-25T11:57:08.227Z,31.75
2018-07-25T11:58:08.204Z,31.65
2018-07-25T11:59:08.189Z,31.92
2018-07-25T12:00:08.169Z,31.85
2018-07-25T12:01:08.161Z,31.66
2018-07-25T12:02:08.162Z,31.65
2018-07-25T12:03:08.115Z,31.50
2018-07-25T12:04:08.089Z,31.58
2018-07-25T12:05:08.071Z,31.41
2018-07-25T12:06:08.054Z,32.22
2018-07-25T12:07:08.031Z,32.99
2018-07-25T12:08:08.022Z,33.68
2018-07-25T12:09:08.002Z,34.32
2018-07-25T12:10:07.976Z,34.12
2018-07-25T12:11:07.953Z,33.53
2018-07-25T12:12:07.938Z,33.35
2018-07-25T12:13:07.915Z,33.19
2018-07-25T12:14:07.914Z,33.19
2018-07-25T12:15:07.874Z,32.63
2018-07-25T12:16:07.874Z,32.50
2018-07-25T12:17:07.859Z,32.40
2018-07-25T12:18:07.825Z,32.47
2018-07-25T12:19:07.806Z,33.12
2018-07-25T12:20:07.772Z,33.68
2018-07-25T12:21:07.821Z,34.28
2018-07-25T12:22:07.737Z,34.77
2018-07-25T12:23:07.740Z,35.22
2018-07-25T12:24:07.708Z,35.43
2018-07-25T12:25:07.677Z,35.00
2018-07-25T12:26:07.672Z,34.97
2018-07-25T12:27:07.659Z,34.27
2018-07-25T12:28:07.613Z,34.00
2018-07-25T12:29:07.604Z,33.60
2018-07-25T12:30:07.622Z,33.84
2018-07-25T12:31:07.585Z,33.78
2018-07-25T12:32:07.586Z,32.97
2018-07-25T12:33:07.556Z,33.63
2018-07-25T12:34:07.511Z,33.39
2018-07-25T12:35:07.497Z,33.38
2018-07-25T12:36:07.496Z,33.82
2018-07-25T12:37:07.454Z,34.27
2018-07-25T12:38:07.471Z,34.43
2018-07-25T12:39:07.407Z,34.88
2018-07-25T12:40:07.387Z,35.10
2018-07-25T12:41:07.373Z,35.45
2018-07-25T12:42:07.364Z,35.53
2018-07-25T12:43:07.358Z,35.74
2018-07-25T12:44:07.321Z,35.93
2018-07-25T12:45:07.298Z,36.13
2018-07-25T12:46:07.277Z,36.29
2018-07-25T12:47:07.261Z,36.41
2018-07-25T12:48:07.243Z,36.43
2018-07-25T12:49:07.259Z,36.01
2018-07-25T12:50:07.219Z,35.26
2018-07-25T12:51:07.219Z,34.58
2018-07-25T12:52:07.164Z,34.94